sensor_id;sensor_type;location;lat;lon;timestamp;pressure;altitude;pressure_sealevel;temperature;humidity
42519;BME280;28147;47.520;18.920;2022-08-19T00:00:18;97989.84;;;27.64;42.49
42519;BME280;28147;47.520;18.920;2022-08-19T00:02:45;97989.22;;;27.71;42.29
42519;BME280;28147;47.520;18.920;2022-08-19T00:05:13;97998.19;;;27.71;42.19
42519;BME280;28147;47.520;18.920;2022-08-19T00:07:39;97991.41;;;27.65;42.21
42519;BME280;28147;47.520;18.920;2022-08-19T00:10:06;97991.41;;;27.65;42.48
42519;BME280;28147;47.520;18.920;2022-08-19T00:12:32;97985.59;;;27.67;42.27
42519;BME280;28147;47.520;18.920;2022-08-19T00:14:58;97989.91;;;27.68;42.30
42519;BME280;28147;47.520;18.920;2022-08-19T00:17:24;97994.50;;;27.63;42.49
42519;BME280;28147;47.520;18.920;2022-08-19T00:19:49;97990.19;;;27.62;42.44
42519;BME280;28147;47.520;18.920;2022-08-19T00:22:15;97992.22;;;27.65;42.30
42519;BME280;28147;47.520;18.920;2022-08-19T00:24:43;97991.41;;;27.65;42.22
42519;BME280;28147;47.520;18.920;2022-08-19T00:27:09;97987.47;;;27.62;42.66
42519;BME280;28147;47.520;18.920;2022-08-19T00:29:34;97998.56;;;27.54;43.05
42519;BME280;28147;47.520;18.920;2022-08-19T00:32:00;97991.56;;;27.37;43.44
42519;BME280;28147;47.520;18.920;2022-08-19T00:34:26;97985.72;;;27.23;44.45
42519;BME280;28147;47.520;18.920;2022-08-19T00:36:56;97979.66;;;27.29;43.61
42519;BME280;28147;47.520;18.920;2022-08-19T00:39:22;97978.06;;;27.28;43.49
42519;BME280;28147;47.520;18.920;2022-08-19T00:41:48;97989.97;;;27.36;43.34
42519;BME280;28147;47.520;18.920;2022-08-19T00:44:22;97983.38;;;27.21;44.34
42519;BME280;28147;47.520;18.920;2022-08-19T00:46:50;97986.34;;;27.16;44.37
42519;BME280;28147;47.520;18.920;2022-08-19T00:51:53;97973.81;;;26.83;46.18
42519;BME280;28147;47.520;18.920;2022-08-19T00:54:20;97981.41;;;26.90;44.86
42519;BME280;28147;47.520;18.920;2022-08-19T00:56:47;97975.22;;;26.93;44.93
42519;BME280;28147;47.520;18.920;2022-08-19T00:59:14;97978.22;;;27.04;44.17
42519;BME280;28147;47.520;18.920;2022-08-19T01:01:43;97984.56;;;26.92;44.32
42519;BME280;28147;47.520;18.920;2022-08-19T01:04:09;97981.03;;;27.07;43.80
42519;BME280;28147;47.520;18.920;2022-08-19T01:06:37;97982.09;;;27.03;44.84
42519;BME280;28147;47.520;18.920;2022-08-19T01:09:04;97972.03;;;26.75;45.93
42519;BME280;28147;47.520;18.920;2022-08-19T01:11:33;97977.81;;;26.58;46.36
42519;BME280;28147;47.520;18.920;2022-08-19T01:13:59;97979.00;;;26.44;46.96
42519;BME280;28147;47.520;18.920;2022-08-19T01:16:27;97977.91;;;26.33;47.93
42519;BME280;28147;47.520;18.920;2022-08-19T01:18:54;97970.63;;;26.25;47.38
42519;BME280;28147;47.520;18.920;2022-08-19T01:21:34;97968.84;;;26.17;47.35
42519;BME280;28147;47.520;18.920;2022-08-19T01:24:03;97973.41;;;26.13;47.41
42519;BME280;28147;47.520;18.920;2022-08-19T01:26:30;97974.94;;;26.10;47.79
42519;BME280;28147;47.520;18.920;2022-08-19T01:28:58;97966.97;;;26.05;48.13
42519;BME280;28147;47.520;18.920;2022-08-19T01:31:28;97968.91;;;26.05;48.47
42519;BME280;28147;47.520;18.920;2022-08-19T01:33:57;97962.81;;;25.95;48.71
42519;BME280;28147;47.520;18.920;2022-08-19T01:36:29;97964.84;;;25.86;48.94
42519;BME280;28147;47.520;18.920;2022-08-19T01:38:55;97950.31;;;25.82;49.22
42519;BME280;28147;47.520;18.920;2022-08-19T01:41:21;97944.19;;;25.73;49.58
42519;BME280;28147;47.520;18.920;2022-08-19T01:43:49;97944.63;;;25.87;48.31
42519;BME280;28147;47.520;18.920;2022-08-19T01:46:15;97945.66;;;25.83;49.13
42519;BME280;28147;47.520;18.920;2022-08-19T01:48:41;97939.19;;;25.75;49.09
42519;BME280;28147;47.520;18.920;2022-08-19T01:51:09;97945.44;;;25.88;48.35
42519;BME280;28147;47.520;18.920;2022-08-19T01:53:35;97931.72;;;26.12;46.88
42519;BME280;28147;47.520;18.920;2022-08-19T01:56:02;97932.09;;;26.27;46.62
42519;BME280;28147;47.520;18.920;2022-08-19T01:58:34;97918.13;;;26.44;45.70
42519;BME280;28147;47.520;18.920;2022-08-19T02:01:03;97915.28;;;26.53;44.84
42519;BME280;28147;47.520;18.920;2022-08-19T02:03:28;97903.72;;;26.59;44.89
42519;BME280;28147;47.520;18.920;2022-08-19T02:05:56;97908.59;;;26.66;44.61
42519;BME280;28147;47.520;18.920;2022-08-19T02:08:29;97901.38;;;26.58;44.95
42519;BME280;28147;47.520;18.920;2022-08-19T02:10:55;97911.22;;;26.62;45.09
42519;BME280;28147;47.520;18.920;2022-08-19T02:13:21;97916.44;;;26.67;44.93
42519;BME280;28147;47.520;18.920;2022-08-19T02:15:47;97914.22;;;26.57;44.89
42519;BME280;28147;47.520;18.920;2022-08-19T02:18:13;97914.22;;;26.57;44.62
42519;BME280;28147;47.520;18.920;2022-08-19T02:20:39;97918.63;;;26.62;44.97
42519;BME280;28147;47.520;18.920;2022-08-19T02:23:06;97908.41;;;26.59;44.65
42519;BME280;28147;47.520;18.920;2022-08-19T02:25:32;97897.84;;;26.57;44.86
42519;BME280;28147;47.520;18.920;2022-08-19T02:27:57;97884.97;;;26.58;44.70
42519;BME280;28147;47.520;18.920;2022-08-19T02:30:23;97887.00;;;26.61;45.13
42519;BME280;28147;47.520;18.920;2022-08-19T02:32:49;97890.44;;;26.58;44.92
42519;BME280;28147;47.520;18.920;2022-08-19T02:35:16;97911.41;;;26.54;45.45
42519;BME280;28147;47.520;18.920;2022-08-19T02:37:42;97903.66;;;26.56;45.47
42519;BME280;28147;47.520;18.920;2022-08-19T02:40:27;97899.78;;;26.57;45.14
42519;BME280;28147;47.520;18.920;2022-08-19T02:42:53;97897.44;;;26.43;45.32
42519;BME280;28147;47.520;18.920;2022-08-19T02:45:18;97902.41;;;26.25;45.63
42519;BME280;28147;47.520;18.920;2022-08-19T02:47:44;97906.06;;;26.29;45.57
42519;BME280;28147;47.520;18.920;2022-08-19T02:50:09;97923.06;;;26.38;45.51
42519;BME280;28147;47.520;18.920;2022-08-19T02:52:35;97925.69;;;26.35;45.60
42519;BME280;28147;47.520;18.920;2022-08-19T02:55:01;97930.09;;;26.39;45.51
42519;BME280;28147;47.520;18.920;2022-08-19T02:57:27;97924.03;;;26.30;45.91
42519;BME280;28147;47.520;18.920;2022-08-19T02:59:53;97934.34;;;26.37;45.81
42519;BME280;28147;47.520;18.920;2022-08-19T03:02:19;97930.03;;;26.08;46.03
42519;BME280;28147;47.520;18.920;2022-08-19T03:04:44;97926.72;;;26.14;46.18
42519;BME280;28147;47.520;18.920;2022-08-19T03:07:13;97923.22;;;26.02;46.51
42519;BME280;28147;47.520;18.920;2022-08-19T03:09:39;97921.84;;;26.08;46.72
42519;BME280;28147;47.520;18.920;2022-08-19T03:12:05;97920.94;;;26.04;46.81
42519;BME280;28147;47.520;18.920;2022-08-19T03:14:32;97936.28;;;26.08;46.57
42519;BME280;28147;47.520;18.920;2022-08-19T03:16:58;97938.91;;;26.05;46.83
42519;BME280;28147;47.520;18.920;2022-08-19T03:19:24;97937.25;;;25.88;47.18
42519;BME280;28147;47.520;18.920;2022-08-19T03:21:50;97941.00;;;25.83;47.48
42519;BME280;28147;47.520;18.920;2022-08-19T03:24:16;97939.44;;;25.70;47.82
42519;BME280;28147;47.520;18.920;2022-08-19T03:26:50;97937.50;;;25.70;47.94
42519;BME280;28147;47.520;18.920;2022-08-19T03:29:17;97947.84;;;25.65;47.98
42519;BME280;28147;47.520;18.920;2022-08-19T03:31:43;97943.56;;;25.39;48.56
42519;BME280;28147;47.520;18.920;2022-08-19T03:34:12;97947.09;;;25.28;49.07
42519;BME280;28147;47.520;18.920;2022-08-19T03:36:38;97943.78;;;25.22;49.12
42519;BME280;28147;47.520;18.920;2022-08-19T03:39:04;97949.69;;;25.24;49.12
42519;BME280;28147;47.520;18.920;2022-08-19T03:41:32;97954.47;;;25.27;49.04
42519;BME280;28147;47.520;18.920;2022-08-19T03:43:58;97943.78;;;25.22;49.35
42519;BME280;28147;47.520;18.920;2022-08-19T03:46:28;97950.38;;;25.21;49.18
42519;BME280;28147;47.520;18.920;2022-08-19T03:48:54;97956.63;;;25.21;49.46
42519;BME280;28147;47.520;18.920;2022-08-19T03:51:23;97962.63;;;25.15;49.53
42519;BME280;28147;47.520;18.920;2022-08-19T03:53:50;97964.47;;;25.23;49.29
42519;BME280;28147;47.520;18.920;2022-08-19T03:56:16;97963.88;;;25.30;49.37
42519;BME280;28147;47.520;18.920;2022-08-19T03:58:43;97954.34;;;25.36;48.90
42519;BME280;28147;47.520;18.920;2022-08-19T04:01:14;97949.69;;;25.36;49.17
42519;BME280;28147;47.520;18.920;2022-08-19T04:03:40;97952.75;;;25.22;49.24
42519;BME280;28147;47.520;18.920;2022-08-19T04:06:15;97955.69;;;25.05;49.87
42519;BME280;28147;47.520;18.920;2022-08-19T04:08:42;97960.94;;;25.10;49.71
42519;BME280;28147;47.520;18.920;2022-08-19T04:11:14;97974.66;;;25.26;49.40
42519;BME280;28147;47.520;18.920;2022-08-19T04:13:41;97971.25;;;25.29;49.12
42519;BME280;28147;47.520;18.920;2022-08-19T04:16:09;97978.53;;;25.25;49.50
42519;BME280;28147;47.520;18.920;2022-08-19T04:18:36;97972.72;;;25.27;49.38
42519;BME280;28147;47.520;18.920;2022-08-19T04:21:02;97979.66;;;25.36;49.26
42519;BME280;28147;47.520;18.920;2022-08-19T04:23:27;97966.28;;;25.31;49.15
42519;BME280;28147;47.520;18.920;2022-08-19T04:25:54;97964.13;;;25.12;49.91
42519;BME280;28147;47.520;18.920;2022-08-19T04:28:20;97963.25;;;24.99;49.96
42519;BME280;28147;47.520;18.920;2022-08-19T04:30:49;97974.06;;;25.08;50.16
42519;BME280;28147;47.520;18.920;2022-08-19T04:33:18;97971.34;;;25.08;50.42
42519;BME280;28147;47.520;18.920;2022-08-19T04:35:46;97983.53;;;25.23;49.85
42519;BME280;28147;47.520;18.920;2022-08-19T04:38:15;97991.13;;;25.30;49.66
42519;BME280;28147;47.520;18.920;2022-08-19T04:40:43;97982.28;;;25.20;49.75
42519;BME280;28147;47.520;18.920;2022-08-19T04:43:27;97983.97;;;25.25;49.79
42519;BME280;28147;47.520;18.920;2022-08-19T04:45:53;97978.88;;;25.36;49.13
42519;BME280;28147;47.520;18.920;2022-08-19T04:48:18;97972.41;;;25.28;49.47
42519;BME280;28147;47.520;18.920;2022-08-19T04:50:51;97969.91;;;25.23;49.70
42519;BME280;28147;47.520;18.920;2022-08-19T04:53:22;97976.72;;;25.29;49.68
42519;BME280;28147;47.520;18.920;2022-08-19T04:55:47;97974.78;;;25.30;49.33
42519;BME280;28147;47.520;18.920;2022-08-19T04:58:12;97984.44;;;25.27;49.68
42519;BME280;28147;47.520;18.920;2022-08-19T05:00:39;97988.16;;;25.22;49.92
42519;BME280;28147;47.520;18.920;2022-08-19T05:03:05;97982.84;;;25.26;50.17
42519;BME280;28147;47.520;18.920;2022-08-19T05:05:30;97985.09;;;25.48;49.57
42519;BME280;28147;47.520;18.920;2022-08-19T05:07:56;97984.31;;;25.60;49.21
42519;BME280;28147;47.520;18.920;2022-08-19T05:10:21;97988.28;;;25.63;48.98
42519;BME280;28147;47.520;18.920;2022-08-19T05:12:47;97989.28;;;25.70;48.57
42519;BME280;28147;47.520;18.920;2022-08-19T05:15:12;97977.50;;;25.79;48.35
42519;BME280;28147;47.520;18.920;2022-08-19T05:17:38;97976.56;;;25.87;48.40
42519;BME280;28147;47.520;18.920;2022-08-19T05:20:23;97962.50;;;25.85;48.11
42519;BME280;28147;47.520;18.920;2022-08-19T05:23:10;97980.84;;;26.00;47.96
42519;BME280;28147;47.520;18.920;2022-08-19T05:25:39;97980.38;;;26.10;47.67
42519;BME280;28147;47.520;18.920;2022-08-19T05:28:04;97986.38;;;26.16;47.72
42519;BME280;28147;47.520;18.920;2022-08-19T05:30:30;97983.47;;;26.37;47.25
42519;BME280;28147;47.520;18.920;2022-08-19T05:32:55;97988.53;;;26.51;46.82
42519;BME280;28147;47.520;18.920;2022-08-19T05:35:21;97986.25;;;26.53;46.70
42519;BME280;28147;47.520;18.920;2022-08-19T05:37:49;97997.66;;;26.71;46.55
42519;BME280;28147;47.520;18.920;2022-08-19T05:40:14;98000.03;;;26.72;46.47
42519;BME280;28147;47.520;18.920;2022-08-19T05:42:40;97993.25;;;26.82;46.99
42519;BME280;28147;47.520;18.920;2022-08-19T05:45:06;97996.81;;;26.82;46.25
42519;BME280;28147;47.520;18.920;2022-08-19T05:47:32;97998.63;;;26.78;46.65
42519;BME280;28147;47.520;18.920;2022-08-19T05:49:57;97996.13;;;27.01;46.40
42519;BME280;28147;47.520;18.920;2022-08-19T05:52:23;97998.84;;;27.01;46.58
42519;BME280;28147;47.520;18.920;2022-08-19T05:54:48;97986.97;;;27.09;45.62
42519;BME280;28147;47.520;18.920;2022-08-19T05:57:16;97981.84;;;27.39;45.24
42519;BME280;28147;47.520;18.920;2022-08-19T05:59:42;97994.38;;;27.40;45.37
42519;BME280;28147;47.520;18.920;2022-08-19T06:02:07;97992.75;;;27.55;44.46
42519;BME280;28147;47.520;18.920;2022-08-19T06:04:33;97992.31;;;27.53;44.13
42519;BME280;28147;47.520;18.920;2022-08-19T06:06:59;97994.16;;;27.65;44.21
42519;BME280;28147;47.520;18.920;2022-08-19T06:09:25;97988.00;;;27.52;44.23
42519;BME280;28147;47.520;18.920;2022-08-19T06:11:55;97982.88;;;27.67;44.18
42519;BME280;28147;47.520;18.920;2022-08-19T06:14:27;97988.63;;;27.46;44.56
42519;BME280;28147;47.520;18.920;2022-08-19T06:16:53;97982.69;;;27.59;44.28
42519;BME280;28147;47.520;18.920;2022-08-19T06:19:21;97994.03;;;27.93;43.25
42519;BME280;28147;47.520;18.920;2022-08-19T06:21:48;97983.25;;;28.20;43.32
42519;BME280;28147;47.520;18.920;2022-08-19T06:24:17;97987.16;;;28.38;42.93
42519;BME280;28147;47.520;18.920;2022-08-19T06:26:45;97979.72;;;28.00;42.91
42519;BME280;28147;47.520;18.920;2022-08-19T06:29:14;97976.97;;;28.19;43.10
42519;BME280;28147;47.520;18.920;2022-08-19T06:31:45;97974.75;;;28.44;41.78
42519;BME280;28147;47.520;18.920;2022-08-19T06:34:12;97969.53;;;28.58;41.39
42519;BME280;28147;47.520;18.920;2022-08-19T06:36:43;97967.94;;;28.77;41.23
42519;BME280;28147;47.520;18.920;2022-08-19T06:39:12;97975.28;;;28.73;40.79
42519;BME280;28147;47.520;18.920;2022-08-19T06:41:41;97956.53;;;28.75;40.59
42519;BME280;28147;47.520;18.920;2022-08-19T06:44:07;97964.78;;;28.36;41.08
42519;BME280;28147;47.520;18.920;2022-08-19T06:46:33;97973.38;;;28.54;40.42
42519;BME280;28147;47.520;18.920;2022-08-19T06:48:59;97977.84;;;28.62;42.11
42519;BME280;28147;47.520;18.920;2022-08-19T06:51:25;97984.97;;;28.47;41.07
42519;BME280;28147;47.520;18.920;2022-08-19T06:53:52;97980.34;;;28.71;41.38
42519;BME280;28147;47.520;18.920;2022-08-19T06:56:22;97985.03;;;28.70;40.22
42519;BME280;28147;47.520;18.920;2022-08-19T06:58:50;97995.25;;;28.73;40.27
42519;BME280;28147;47.520;18.920;2022-08-19T07:01:18;97997.97;;;28.50;39.98
42519;BME280;28147;47.520;18.920;2022-08-19T07:03:44;98012.22;;;28.59;40.29
42519;BME280;28147;47.520;18.920;2022-08-19T07:06:13;98016.47;;;28.57;40.81
42519;BME280;28147;47.520;18.920;2022-08-19T07:08:40;98010.84;;;28.69;40.97
42519;BME280;28147;47.520;18.920;2022-08-19T07:11:09;98014.88;;;28.75;40.88
42519;BME280;28147;47.520;18.920;2022-08-19T07:13:35;98012.19;;;28.98;40.61
42519;BME280;28147;47.520;18.920;2022-08-19T07:16:10;98013.53;;;28.89;40.68
42519;BME280;28147;47.520;18.920;2022-08-19T07:18:37;98020.72;;;28.97;39.83
42519;BME280;28147;47.520;18.920;2022-08-19T07:21:14;98017.56;;;28.95;40.47
42519;BME280;28147;47.520;18.920;2022-08-19T07:23:41;98020.81;;;29.23;39.84
42519;BME280;28147;47.520;18.920;2022-08-19T07:26:09;98020.53;;;29.28;39.99
42519;BME280;28147;47.520;18.920;2022-08-19T07:28:35;98015.06;;;29.28;39.89
42519;BME280;28147;47.520;18.920;2022-08-19T07:31:07;98017.59;;;29.41;39.77
42519;BME280;28147;47.520;18.920;2022-08-19T07:33:33;98017.34;;;29.26;39.70
42519;BME280;28147;47.520;18.920;2022-08-19T07:36:06;98019.22;;;29.45;39.36
42519;BME280;28147;47.520;18.920;2022-08-19T07:38:33;98021.72;;;29.54;39.09
42519;BME280;28147;47.520;18.920;2022-08-19T07:40:59;98017.03;;;29.81;38.97
42519;BME280;28147;47.520;18.920;2022-08-19T07:43:26;98030.09;;;29.88;38.89
42519;BME280;28147;47.520;18.920;2022-08-19T07:45:54;98019.41;;;30.09;38.84
42519;BME280;28147;47.520;18.920;2022-08-19T07:48:26;98020.78;;;30.22;37.68
42519;BME280;28147;47.520;18.920;2022-08-19T07:50:57;98025.06;;;30.20;36.82
42519;BME280;28147;47.520;18.920;2022-08-19T07:53:24;98012.09;;;30.17;37.28
42519;BME280;28147;47.520;18.920;2022-08-19T07:55:50;98016.06;;;29.96;37.71
42519;BME280;28147;47.520;18.920;2022-08-19T07:58:18;98026.81;;;30.35;37.87
42519;BME280;28147;47.520;18.920;2022-08-19T08:00:45;98023.56;;;30.26;37.65
42519;BME280;28147;47.520;18.920;2022-08-19T08:03:12;98017.22;;;30.22;37.86
42519;BME280;28147;47.520;18.920;2022-08-19T08:05:37;98020.94;;;30.06;37.81
42519;BME280;28147;47.520;18.920;2022-08-19T08:08:21;98029.97;;;30.37;37.58
42519;BME280;28147;47.520;18.920;2022-08-19T08:11:07;98026.94;;;30.80;36.89
42519;BME280;28147;47.520;18.920;2022-08-19T08:13:33;98028.38;;;31.04;36.52
42519;BME280;28147;47.520;18.920;2022-08-19T08:16:01;98033.63;;;31.19;36.20
42519;BME280;28147;47.520;18.920;2022-08-19T08:18:27;98034.06;;;31.25;35.74
42519;BME280;28147;47.520;18.920;2022-08-19T08:20:54;98030.72;;;31.01;35.75
42519;BME280;28147;47.520;18.920;2022-08-19T08:23:20;98035.06;;;31.06;35.83
42519;BME280;28147;47.520;18.920;2022-08-19T08:25:51;98032.25;;;31.40;35.61
42519;BME280;28147;47.520;18.920;2022-08-19T08:28:18;98024.84;;;31.47;35.50
42519;BME280;28147;47.520;18.920;2022-08-19T08:30:46;98023.41;;;31.64;34.74
42519;BME280;28147;47.520;18.920;2022-08-19T08:33:13;98020.88;;;31.96;34.43
42519;BME280;28147;47.520;18.920;2022-08-19T08:35:40;98025.75;;;31.62;34.31
42519;BME280;28147;47.520;18.920;2022-08-19T08:38:07;98026.50;;;31.59;34.50
42519;BME280;28147;47.520;18.920;2022-08-19T08:40:51;98013.69;;;31.30;34.67
42519;BME280;28147;47.520;18.920;2022-08-19T08:46:17;97993.75;;;31.43;33.89
42519;BME280;28147;47.520;18.920;2022-08-19T08:48:54;98003.44;;;31.26;33.11
42519;BME280;28147;47.520;18.920;2022-08-19T08:51:33;98012.75;;;31.59;33.54
42519;BME280;28147;47.520;18.920;2022-08-19T08:54:02;98013.13;;;32.20;32.93
42519;BME280;28147;47.520;18.920;2022-08-19T08:56:29;98013.19;;;32.38;32.26
42519;BME280;28147;47.520;18.920;2022-08-19T08:59:05;98015.69;;;32.64;32.72
42519;BME280;28147;47.520;18.920;2022-08-19T09:01:33;98008.16;;;32.47;31.87
42519;BME280;28147;47.520;18.920;2022-08-19T09:03:59;98004.19;;;32.41;31.41
42519;BME280;28147;47.520;18.920;2022-08-19T09:09:17;98001.47;;;32.48;31.93
42519;BME280;28147;47.520;18.920;2022-08-19T09:14:43;97997.97;;;32.73;30.61
42519;BME280;28147;47.520;18.920;2022-08-19T09:17:12;97994.91;;;32.99;30.75
42519;BME280;28147;47.520;18.920;2022-08-19T09:19:55;97992.56;;;33.08;30.93
42519;BME280;28147;47.520;18.920;2022-08-19T09:22:24;97981.53;;;33.48;30.00
42519;BME280;28147;47.520;18.920;2022-08-19T09:24:52;97984.28;;;33.51;29.71
42519;BME280;28147;47.520;18.920;2022-08-19T09:27:22;97996.91;;;33.41;29.99
42519;BME280;28147;47.520;18.920;2022-08-19T09:29:51;97986.25;;;33.04;29.31
42519;BME280;28147;47.520;18.920;2022-08-19T09:32:19;97979.84;;;32.64;29.39
42519;BME280;28147;47.520;18.920;2022-08-19T09:34:44;97983.09;;;33.09;29.29
42519;BME280;28147;47.520;18.920;2022-08-19T09:37:10;97981.50;;;33.26;29.86
42519;BME280;28147;47.520;18.920;2022-08-19T09:39:38;97981.50;;;33.33;28.44
42519;BME280;28147;47.520;18.920;2022-08-19T09:42:03;97973.63;;;33.57;28.50
42519;BME280;28147;47.520;18.920;2022-08-19T09:44:30;97987.81;;;33.55;28.54
42519;BME280;28147;47.520;18.920;2022-08-19T09:46:55;97979.16;;;33.14;29.04
42519;BME280;28147;47.520;18.920;2022-08-19T09:49:21;97961.00;;;33.41;29.21
42519;BME280;28147;47.520;18.920;2022-08-19T09:51:51;97965.34;;;33.28;29.59
42519;BME280;28147;47.520;18.920;2022-08-19T09:54:17;97967.72;;;33.55;29.10
42519;BME280;28147;47.520;18.920;2022-08-19T09:56:43;97959.06;;;33.53;29.29
42519;BME280;28147;47.520;18.920;2022-08-19T09:59:10;97956.63;;;33.73;29.22
42519;BME280;28147;47.520;18.920;2022-08-19T10:01:37;97966.47;;;33.88;28.71
42519;BME280;28147;47.520;18.920;2022-08-19T10:04:04;97964.53;;;33.56;29.30
42519;BME280;28147;47.520;18.920;2022-08-19T10:06:35;97962.97;;;33.45;29.67
42519;BME280;28147;47.520;18.920;2022-08-19T10:09:03;97972.03;;;33.56;29.67
42519;BME280;28147;47.520;18.920;2022-08-19T10:11:31;97954.31;;;33.28;28.83
42519;BME280;28147;47.520;18.920;2022-08-19T10:13:56;97964.97;;;33.15;29.43
42519;BME280;28147;47.520;18.920;2022-08-19T10:16:23;97959.84;;;33.10;29.42
42519;BME280;28147;47.520;18.920;2022-08-19T10:18:50;97962.59;;;33.21;29.45
42519;BME280;28147;47.520;18.920;2022-08-19T10:21:21;97957.06;;;33.28;28.96
42519;BME280;28147;47.520;18.920;2022-08-19T10:23:49;97957.06;;;33.39;29.38
42519;BME280;28147;47.520;18.920;2022-08-19T10:26:19;97949.91;;;33.81;28.92
42519;BME280;28147;47.520;18.920;2022-08-19T10:28:45;97952.66;;;33.81;28.25
42519;BME280;28147;47.520;18.920;2022-08-19T10:31:14;97949.84;;;34.06;27.70
42519;BME280;28147;47.520;18.920;2022-08-19T10:33:41;97955.25;;;34.31;28.05
42519;BME280;28147;47.520;18.920;2022-08-19T10:36:13;97965.03;;;34.53;27.53
42519;BME280;28147;47.520;18.920;2022-08-19T10:38:44;97966.25;;;34.45;27.02
42519;BME280;28147;47.520;18.920;2022-08-19T10:41:19;97959.47;;;34.57;27.08
42519;BME280;28147;47.520;18.920;2022-08-19T10:43:45;97966.31;;;34.31;27.93
42519;BME280;28147;47.520;18.920;2022-08-19T10:46:13;97957.50;;;34.57;27.27
42519;BME280;28147;47.520;18.920;2022-08-19T10:48:39;97960.34;;;34.36;27.50
42519;BME280;28147;47.520;18.920;2022-08-19T10:51:05;97961.44;;;34.64;27.01
42519;BME280;28147;47.520;18.920;2022-08-19T10:53:49;97968.63;;;34.36;27.35
42519;BME280;28147;47.520;18.920;2022-08-19T10:56:15;97963.06;;;34.47;27.03
42519;BME280;28147;47.520;18.920;2022-08-19T10:59:00;97965.09;;;34.32;27.63
42519;BME280;28147;47.520;18.920;2022-08-19T11:01:26;97967.47;;;34.37;27.27
42519;BME280;28147;47.520;18.920;2022-08-19T11:03:52;97950.94;;;34.93;27.61
42519;BME280;28147;47.520;18.920;2022-08-19T11:06:18;97959.03;;;34.66;27.02
42519;BME280;28147;47.520;18.920;2022-08-19T11:08:44;97948.50;;;34.39;27.55
42519;BME280;28147;47.520;18.920;2022-08-19T11:11:11;97961.84;;;34.58;27.19
42519;BME280;28147;47.520;18.920;2022-08-19T11:13:39;97958.25;;;34.65;27.59
42519;BME280;28147;47.520;18.920;2022-08-19T11:16:09;97958.56;;;34.78;27.63
42519;BME280;28147;47.520;18.920;2022-08-19T11:18:37;97964.25;;;34.53;26.99
42519;BME280;28147;47.520;18.920;2022-08-19T11:21:15;97977.72;;;34.40;27.46
42519;BME280;28147;47.520;18.920;2022-08-19T11:23:46;97967.78;;;34.57;27.36
42519;BME280;28147;47.520;18.920;2022-08-19T11:26:13;97958.88;;;34.91;26.65
42519;BME280;28147;47.520;18.920;2022-08-19T11:28:40;97962.34;;;35.05;26.15
42519;BME280;28147;47.520;18.920;2022-08-19T11:31:11;97954.88;;;34.95;26.68
42519;BME280;28147;47.520;18.920;2022-08-19T11:33:36;97950.63;;;34.83;26.62
42519;BME280;28147;47.520;18.920;2022-08-19T11:36:02;97955.53;;;34.58;26.53
42519;BME280;28147;47.520;18.920;2022-08-19T11:38:28;97956.53;;;34.85;26.78
42519;BME280;28147;47.520;18.920;2022-08-19T11:40:59;97954.59;;;34.79;26.81
42519;BME280;28147;47.520;18.920;2022-08-19T11:43:25;97953.63;;;35.07;26.19
42519;BME280;28147;47.520;18.920;2022-08-19T11:45:53;97952.16;;;34.88;26.14
42519;BME280;28147;47.520;18.920;2022-08-19T11:48:18;97942.22;;;34.98;26.21
42519;BME280;28147;47.520;18.920;2022-08-19T11:50:48;97944.63;;;34.92;26.46
42519;BME280;28147;47.520;18.920;2022-08-19T11:53:13;97943.88;;;34.84;26.30
42519;BME280;28147;47.520;18.920;2022-08-19T11:55:39;97936.19;;;34.47;26.60
42519;BME280;28147;47.520;18.920;2022-08-19T11:58:05;97929.91;;;34.50;27.20
42519;BME280;28147;47.520;18.920;2022-08-19T12:00:34;97938.72;;;34.20;27.00
42519;BME280;28147;47.520;18.920;2022-08-19T12:03:02;97929.72;;;34.05;27.04
42519;BME280;28147;47.520;18.920;2022-08-19T12:05:27;97933.28;;;34.02;27.10
42519;BME280;28147;47.520;18.920;2022-08-19T12:07:53;97935.66;;;34.04;27.76
42519;BME280;28147;47.520;18.920;2022-08-19T12:10:20;97931.75;;;33.87;27.16
42519;BME280;28147;47.520;18.920;2022-08-19T12:12:45;97934.91;;;33.78;27.29
42519;BME280;28147;47.520;18.920;2022-08-19T12:15:12;97940.00;;;33.90;27.13
42519;BME280;28147;47.520;18.920;2022-08-19T12:17:40;97934.88;;;33.93;26.79
42519;BME280;28147;47.520;18.920;2022-08-19T12:20:08;97944.34;;;33.92;26.97
42519;BME280;28147;47.520;18.920;2022-08-19T12:22:35;97956.91;;;34.18;26.34
42519;BME280;28147;47.520;18.920;2022-08-19T12:25:01;97952.56;;;34.17;27.21
42519;BME280;28147;47.520;18.920;2022-08-19T12:27:27;97948.97;;;34.23;26.35
42519;BME280;28147;47.520;18.920;2022-08-19T12:29:52;97947.34;;;34.33;26.44
42519;BME280;28147;47.520;18.920;2022-08-19T12:32:17;97941.59;;;34.02;26.90
42519;BME280;28147;47.520;18.920;2022-08-19T12:34:43;97949.06;;;33.95;26.81
42519;BME280;28147;47.520;18.920;2022-08-19T12:37:09;97934.03;;;34.13;27.31
42519;BME280;28147;47.520;18.920;2022-08-19T12:39:41;97929.91;;;34.43;27.06
42519;BME280;28147;47.520;18.920;2022-08-19T12:42:08;97929.94;;;34.36;26.58
42519;BME280;28147;47.520;18.920;2022-08-19T12:44:35;97914.16;;;34.40;26.81
42519;BME280;28147;47.520;18.920;2022-08-19T12:47:00;97920.50;;;34.33;27.14
42519;BME280;28147;47.520;18.920;2022-08-19T12:49:29;97910.97;;;34.42;26.78
42519;BME280;28147;47.520;18.920;2022-08-19T12:51:56;97910.13;;;34.55;26.21
42519;BME280;28147;47.520;18.920;2022-08-19T12:54:23;97897.94;;;34.38;26.36
42519;BME280;28147;47.520;18.920;2022-08-19T12:56:48;97901.84;;;34.55;26.54
42519;BME280;28147;47.520;18.920;2022-08-19T12:59:14;97908.94;;;34.56;26.15
42519;BME280;28147;47.520;18.920;2022-08-19T13:01:41;97913.06;;;34.86;26.24
42519;BME280;28147;47.520;18.920;2022-08-19T13:04:08;97911.63;;;34.67;26.26